createdAt,value
2023-05-05T00:00:24.101Z,16.40
2023-05-05T00:01:06.216Z,16.40
2023-05-05T00:01:48.083Z,16.30
2023-05-05T00:02:30.180Z,16.40
2023-05-05T00:03:12.124Z,16.30
2023-05-05T00:03:54.035Z,16.40
2023-05-05T00:04:36.070Z,16.40
2023-05-05T00:05:18.098Z,16.30
2023-05-05T00:05:59.903Z,16.40
2023-05-05T00:06:43.872Z,16.20
2023-05-05T00:07:25.645Z,16.20
2023-05-05T00:08:07.894Z,16.10
2023-05-05T00:08:49.954Z,16.20
2023-05-05T00:09:33.861Z,16.20
2023-05-05T00:10:15.631Z,16.10
2023-05-05T00:11:00.105Z,16.10
2023-05-05T00:11:42.163Z,16.10
2023-05-05T00:12:24.175Z,16.20
2023-05-05T00:13:06.538Z,16.20
2023-05-05T00:13:49.004Z,16.00
2023-05-05T00:14:33.087Z,16.20
2023-05-05T00:15:15.027Z,16.00
2023-05-05T00:15:56.866Z,16.10
2023-05-05T00:16:38.794Z,16.00
2023-05-05T00:17:20.687Z,16.00
2023-05-05T00:18:03.227Z,16.00
2023-05-05T00:18:45.123Z,16.10
2023-05-05T00:19:27.181Z,16.10
2023-05-05T00:20:10.158Z,16.10
2023-05-05T00:20:52.340Z,16.00
2023-05-05T00:21:34.128Z,15.80
2023-05-05T00:22:18.279Z,15.70
2023-05-05T00:23:00.020Z,15.80
2023-05-05T00:23:44.017Z,15.60
2023-05-05T00:24:26.203Z,15.90
2023-05-05T00:25:08.511Z,15.80
2023-05-05T00:25:53.412Z,15.70
2023-05-05T00:26:35.358Z,15.80
2023-05-05T00:27:17.126Z,15.70
2023-05-05T00:27:59.170Z,15.70
2023-05-05T00:28:43.279Z,15.30
2023-05-05T00:29:25.285Z,15.60
2023-05-05T00:30:08.365Z,15.60
2023-05-05T00:30:50.597Z,15.70
2023-05-05T00:31:33.143Z,15.50
2023-05-05T00:32:15.168Z,15.50
2023-05-05T00:32:57.405Z,15.50
2023-05-05T00:33:39.610Z,15.50
2023-05-05T00:34:21.577Z,15.60
2023-05-05T00:35:03.617Z,15.50
2023-05-05T00:35:45.570Z,15.60
2023-05-05T00:36:28.498Z,15.60
2023-05-05T00:37:10.287Z,15.40
2023-05-05T00:37:54.350Z,17.60
2023-05-05T00:38:36.296Z,15.60
2023-05-05T00:39:18.265Z,15.50
2023-05-05T00:40:00.290Z,15.50
2023-05-05T00:40:42.433Z,15.40
2023-05-05T00:41:24.309Z,15.50
2023-05-05T00:42:06.215Z,15.40
2023-05-05T00:42:52.385Z,15.30
2023-05-05T00:43:34.289Z,15.60
2023-05-05T00:44:18.432Z,15.40
2023-05-05T00:45:00.292Z,15.50
2023-05-05T00:45:44.620Z,15.30
2023-05-05T00:46:29.568Z,15.40
2023-05-05T00:47:12.827Z,15.20
2023-05-05T00:47:59.769Z,15.30
2023-05-05T00:48:41.792Z,15.20
2023-05-05T00:49:23.838Z,15.10
2023-05-05T00:50:09.503Z,15.10
2023-05-05T00:50:52.413Z,15.40
2023-05-05T00:51:34.480Z,15.20
2023-05-05T00:52:16.279Z,15.70
2023-05-05T00:53:01.544Z,15.40
2023-05-05T00:53:45.111Z,15.20
2023-05-05T00:54:27.314Z,15.40
2023-05-05T00:55:10.221Z,15.20
2023-05-05T00:55:52.429Z,15.10
2023-05-05T00:56:34.288Z,15.10
2023-05-05T00:57:16.644Z,14.90
2023-05-05T00:57:59.257Z,15.20
2023-05-05T00:58:44.401Z,15.20
2023-05-05T00:59:29.631Z,15.00
2023-05-05T01:00:12.467Z,15.30
2023-05-05T01:00:54.232Z,15.20
2023-05-05T01:01:38.330Z,14.80
2023-05-05T01:02:20.188Z,14.90
2023-05-05T01:03:02.370Z,15.00
2023-05-05T01:03:44.392Z,15.20
2023-05-05T01:04:29.425Z,15.10
2023-05-05T01:05:13.335Z,15.10
2023-05-05T01:06:07.394Z,15.00
2023-05-05T01:06:58.577Z,15.00
2023-05-05T01:07:54.890Z,15.20
2023-05-05T01:09:02.049Z,15.00
2023-05-05T01:10:19.080Z,14.90
2023-05-05T01:11:10.227Z,14.90
2023-05-05T01:12:03.789Z,14.70
2023-05-05T01:13:04.326Z,14.90
2023-05-05T01:14:03.726Z,14.80
2023-05-05T01:14:57.263Z,14.60
2023-05-05T01:15:53.465Z,14.80
2023-05-05T01:16:37.876Z,14.70
2023-05-05T01:17:30.011Z,14.70
2023-05-05T01:18:27.705Z,14.80
2023-05-05T01:19:34.504Z,14.50
2023-05-05T01:20:24.850Z,14.70
2023-05-05T01:21:31.664Z,14.70
2023-05-05T01:22:18.031Z,14.70
2023-05-05T01:23:05.904Z,14.60
2023-05-05T01:24:06.631Z,14.80
2023-05-05T01:25:24.342Z,14.70
2023-05-05T01:26:18.977Z,14.70
2023-05-05T01:27:30.565Z,14.40
2023-05-05T01:28:30.371Z,14.50
2023-05-05T01:29:30.674Z,14.50
2023-05-05T01:30:23.717Z,14.50
2023-05-05T01:31:21.630Z,14.50
2023-05-05T01:32:07.981Z,14.40
2023-05-05T01:32:55.406Z,14.30
2023-05-05T01:33:48.885Z,14.50
2023-05-05T01:34:39.045Z,14.60
2023-05-05T01:35:30.073Z,14.50
2023-05-05T01:36:22.676Z,14.50
2023-05-05T01:37:45.982Z,14.50
2023-05-05T01:38:38.763Z,14.10
2023-05-05T01:39:26.497Z,14.20
2023-05-05T01:40:10.744Z,14.50
2023-05-05T01:41:14.526Z,14.50
2023-05-05T01:42:00.129Z,14.30
2023-05-05T01:42:43.556Z,14.50
2023-05-05T01:43:29.570Z,14.40
2023-05-05T01:44:13.420Z,14.20
2023-05-05T01:44:57.619Z,14.40
2023-05-05T01:45:45.609Z,14.50
2023-05-05T01:46:27.756Z,14.40
2023-05-05T01:47:15.021Z,14.20
2023-05-05T01:47:58.869Z,14.10
2023-05-05T01:48:42.670Z,14.20
2023-05-05T01:49:25.518Z,14.30
2023-05-05T01:50:09.970Z,14.20
2023-05-05T01:50:53.364Z,14.00
2023-05-05T01:51:36.788Z,14.40
2023-05-05T01:52:19.539Z,14.30
2023-05-05T01:53:03.746Z,14.20
2023-05-05T01:53:47.341Z,13.90
2023-05-05T01:54:29.691Z,14.00
2023-05-05T01:55:13.801Z,14.30
2023-05-05T01:55:57.872Z,14.40
2023-05-05T01:56:42.072Z,14.30
2023-05-05T01:57:29.098Z,13.90
2023-05-05T01:58:12.086Z,14.30
2023-05-05T01:58:55.906Z,14.20
2023-05-05T01:59:39.782Z,14.20
2023-05-05T02:00:25.291Z,14.30
2023-05-05T02:01:07.652Z,14.30
2023-05-05T02:01:50.974Z,14.00
2023-05-05T02:02:35.234Z,14.30
2023-05-05T02:03:18.141Z,13.90
2023-05-05T02:04:03.188Z,14.20
2023-05-05T02:04:49.081Z,14.20
2023-05-05T02:05:32.680Z,14.00
2023-05-05T02:06:16.238Z,14.00
2023-05-05T02:06:59.758Z,13.80
2023-05-05T02:07:42.021Z,14.00
2023-05-05T02:08:29.347Z,13.90
2023-05-05T02:09:13.131Z,13.80
2023-05-05T02:09:56.416Z,14.00
2023-05-05T02:10:42.830Z,14.00
2023-05-05T02:11:26.427Z,14.00
2023-05-05T02:12:08.934Z,13.90
2023-05-05T02:12:52.280Z,14.10
2023-05-05T02:13:35.639Z,14.10
2023-05-05T02:14:22.297Z,14.00
2023-05-05T02:15:04.866Z,14.10
2023-05-05T02:15:49.833Z,14.00
2023-05-05T02:16:33.251Z,13.90
2023-05-05T02:17:17.190Z,14.10
2023-05-05T02:18:00.454Z,14.20
2023-05-05T02:18:43.155Z,13.80
2023-05-05T02:19:34.464Z,13.90
2023-05-05T02:20:17.906Z,14.10
2023-05-05T02:20:59.840Z,13.90
2023-05-05T02:21:42.331Z,13.90
2023-05-05T02:22:24.329Z,14.00
2023-05-05T02:23:08.112Z,13.90
2023-05-05T02:23:54.131Z,14.10
2023-05-05T02:24:36.066Z,13.70
2023-05-05T02:25:18.257Z,13.80
2023-05-05T02:26:06.134Z,13.80
2023-05-05T02:26:54.178Z,13.80
2023-05-05T02:27:37.341Z,13.90
2023-05-05T02:28:29.171Z,14.10
2023-05-05T02:29:18.957Z,14.20
2023-05-05T02:30:09.119Z,14.10
2023-05-05T02:30:58.115Z,13.90
2023-05-05T02:31:45.419Z,13.90
2023-05-05T02:32:31.415Z,13.90
2023-05-05T02:33:16.178Z,13.90
2023-05-05T02:34:04.189Z,13.80
2023-05-05T02:34:50.734Z,13.80
2023-05-05T02:35:38.137Z,14.00
2023-05-05T02:36:22.689Z,13.80
2023-05-05T02:37:12.603Z,13.60
2023-05-05T02:38:03.069Z,13.80
2023-05-05T02:38:46.440Z,13.80
2023-05-05T02:39:35.639Z,13.90
2023-05-05T02:40:22.383Z,13.90
2023-05-05T02:41:05.929Z,13.60
2023-05-05T02:41:49.762Z,14.00
2023-05-05T02:42:41.012Z,13.80
2023-05-05T02:43:24.648Z,13.70
2023-05-05T02:44:08.378Z,13.80
2023-05-05T02:44:51.856Z,13.90
2023-05-05T02:45:33.873Z,13.90
2023-05-05T02:46:18.171Z,13.50
2023-05-05T02:47:00.034Z,13.60
2023-05-05T02:47:44.457Z,13.70
2023-05-05T02:48:26.296Z,13.60
2023-05-05T02:49:08.724Z,13.80
2023-05-05T02:49:50.613Z,13.60
2023-05-05T02:50:33.320Z,13.80
2023-05-05T02:51:15.783Z,13.70
2023-05-05T02:51:58.172Z,13.60
2023-05-05T02:52:40.322Z,13.60
2023-05-05T02:53:26.284Z,13.70
2023-05-05T02:54:08.786Z,13.60
2023-05-05T02:54:51.122Z,13.40
2023-05-05T02:55:49.999Z,13.40
2023-05-05T02:57:04.379Z,13.80
2023-05-05T02:58:04.859Z,13.60
2023-05-05T02:58:54.515Z,13.70
2023-05-05T02:59:52.202Z,13.50
2023-05-05T03:00:55.525Z,13.50
2023-05-05T03:01:51.192Z,13.40
2023-05-05T03:03:16.525Z,13.70
2023-05-05T03:04:15.346Z,13.60
2023-05-05T03:05:06.119Z,13.40
2023-05-05T03:05:58.878Z,13.40
2023-05-05T03:06:42.930Z,13.80
2023-05-05T03:07:49.859Z,13.50
2023-05-05T03:09:13.234Z,13.40
2023-05-05T03:10:03.368Z,13.40
2023-05-05T03:10:58.933Z,13.40
2023-05-05T03:12:05.397Z,13.70
2023-05-05T03:12:52.995Z,13.60
2023-05-05T03:13:39.567Z,13.80
2023-05-05T03:14:22.726Z,13.40
2023-05-05T03:15:07.254Z,13.30
2023-05-05T03:15:52.601Z,13.70
2023-05-05T03:16:38.995Z,13.70
2023-05-05T03:17:23.419Z,13.50
2023-05-05T03:18:08.331Z,13.80
2023-05-05T03:18:51.130Z,13.60
2023-05-05T03:19:34.439Z,13.30
2023-05-05T03:20:16.725Z,13.80
2023-05-05T03:21:07.845Z,13.40
2023-05-05T03:21:49.727Z,13.30
2023-05-05T03:22:35.075Z,13.40
2023-05-05T03:23:20.850Z,13.50
2023-05-05T03:24:18.255Z,13.30
2023-05-05T03:25:00.170Z,13.50
2023-05-05T03:25:45.140Z,13.50
2023-05-05T03:26:27.045Z,13.60
2023-05-05T03:27:09.002Z,13.50
2023-05-05T03:27:51.123Z,13.40
2023-05-05T03:28:33.444Z,13.30
2023-05-05T03:29:15.852Z,13.60
2023-05-05T03:29:57.658Z,13.40
2023-05-05T03:30:39.671Z,13.30
2023-05-05T03:31:21.561Z,13.40
2023-05-05T03:32:04.652Z,13.50
2023-05-05T03:32:46.608Z,13.40
2023-05-05T03:33:31.274Z,13.50
2023-05-05T03:34:13.694Z,13.50
2023-05-05T03:34:55.650Z,13.30
2023-05-05T03:35:37.422Z,13.20
2023-05-05T03:36:19.294Z,13.10
2023-05-05T03:37:01.100Z,13.10
2023-05-05T03:37:43.431Z,13.10
2023-05-05T03:38:25.249Z,13.10
2023-05-05T03:39:09.592Z,13.10
2023-05-05T03:39:51.354Z,13.10
2023-05-05T03:40:43.542Z,13.30
2023-05-05T03:41:27.881Z,13.10
2023-05-05T03:42:09.655Z,13.30
2023-05-05T03:42:51.420Z,13.00
2023-05-05T03:43:33.473Z,13.20
2023-05-05T03:44:15.478Z,13.20
2023-05-05T03:44:59.763Z,13.20
2023-05-05T03:45:41.579Z,13.30
2023-05-05T03:46:24.061Z,13.20
2023-05-05T03:47:06.012Z,13.10
2023-05-05T03:47:49.960Z,13.00
2023-05-05T03:48:31.781Z,13.20
2023-05-05T03:49:13.963Z,13.70
2023-05-05T03:49:56.242Z,13.40
2023-05-05T03:50:38.533Z,13.10
2023-05-05T03:51:20.594Z,13.00
2023-05-05T03:52:02.472Z,13.20
2023-05-05T03:52:44.399Z,13.00
2023-05-05T03:53:26.191Z,13.00
2023-05-05T03:54:08.446Z,12.90
2023-05-05T03:54:50.213Z,13.10
2023-05-05T03:55:34.058Z,13.20
2023-05-05T03:56:15.860Z,13.20
2023-05-05T03:56:58.452Z,13.10
2023-05-05T03:57:40.264Z,12.90
2023-05-05T03:58:24.432Z,13.00
2023-05-05T03:59:06.391Z,13.00
2023-05-05T03:59:48.581Z,13.10
2023-05-05T04:00:30.584Z,12.90
2023-05-05T04:01:14.652Z,13.00
2023-05-05T04:01:56.846Z,13.10
2023-05-05T04:02:41.843Z,13.10
2023-05-05T04:03:26.477Z,13.20
2023-05-05T04:04:09.589Z,12.90
2023-05-05T04:04:51.510Z,13.30
2023-05-05T04:05:33.556Z,12.90
2023-05-05T04:06:15.576Z,13.00
2023-05-05T04:06:57.416Z,13.20
2023-05-05T04:07:39.258Z,12.80
2023-05-05T04:08:21.098Z,13.00
2023-05-05T04:09:03.531Z,13.10
2023-05-05T04:09:45.599Z,12.80
2023-05-05T04:10:27.371Z,13.20
2023-05-05T04:11:09.430Z,13.20
2023-05-05T04:11:51.254Z,12.90
2023-05-05T04:12:33.704Z,12.70
2023-05-05T04:13:15.846Z,13.00
2023-05-05T04:13:57.720Z,12.80
2023-05-05T04:14:39.670Z,12.50
2023-05-05T04:15:21.747Z,13.10
2023-05-05T04:16:06.468Z,12.80
2023-05-05T04:16:48.653Z,12.90
2023-05-05T04:17:30.780Z,13.10
2023-05-05T04:18:12.790Z,12.90
2023-05-05T04:18:55.374Z,13.10
2023-05-05T04:19:39.362Z,13.10
2023-05-05T04:20:21.535Z,13.30
2023-05-05T04:21:03.638Z,13.40
2023-05-05T04:21:45.518Z,13.20
2023-05-05T04:22:29.772Z,13.40
2023-05-05T04:23:11.620Z,13.10
2023-05-05T04:23:53.699Z,13.30
2023-05-05T04:24:35.664Z,13.30
2023-05-05T04:25:17.780Z,13.30
2023-05-05T04:25:59.590Z,13.10
2023-05-05T04:26:41.504Z,13.30
2023-05-05T04:27:26.178Z,13.20
2023-05-05T04:28:08.587Z,13.20
2023-05-05T04:28:50.487Z,13.50
2023-05-05T04:29:32.653Z,13.20
2023-05-05T04:30:15.250Z,13.30
2023-05-05T04:30:59.541Z,13.60
2023-05-05T04:31:41.422Z,13.40
2023-05-05T04:32:23.699Z,13.50
2023-05-05T04:33:05.505Z,13.60
2023-05-05T04:33:47.590Z,13.40
2023-05-05T04:34:29.488Z,13.60
2023-05-05T04:35:11.309Z,13.40
2023-05-05T04:35:53.684Z,13.40
2023-05-05T04:36:35.743Z,13.30
2023-05-05T04:37:19.664Z,13.40
2023-05-05T04:38:01.941Z,13.60
2023-05-05T04:38:46.437Z,13.70
2023-05-05T04:39:28.725Z,13.60
2023-05-05T04:40:10.974Z,13.80
2023-05-05T04:40:52.768Z,13.50
2023-05-05T04:41:34.823Z,13.70
2023-05-05T04:42:16.643Z,13.80
2023-05-05T04:42:58.483Z,13.80
2023-05-05T04:43:40.962Z,13.80
2023-05-05T04:44:22.740Z,13.70
2023-05-05T04:45:05.087Z,13.70
2023-05-05T04:45:54.031Z,13.60
2023-05-05T04:46:36.073Z,13.70
2023-05-05T04:47:18.023Z,13.50
2023-05-05T04:48:00.248Z,13.50
2023-05-05T04:48:44.170Z,13.90
2023-05-05T04:49:26.148Z,13.50
2023-05-05T04:50:08.993Z,13.50
2023-05-05T04:50:51.392Z,13.80
2023-05-05T04:51:33.692Z,13.80
2023-05-05T04:52:15.666Z,13.70
2023-05-05T04:52:59.866Z,14.00
2023-05-05T04:53:41.623Z,13.60
2023-05-05T04:54:23.792Z,13.70
2023-05-05T04:55:06.356Z,13.80
2023-05-05T04:55:48.691Z,13.50
2023-05-05T04:56:31.968Z,13.80
2023-05-05T04:57:14.237Z,13.80
2023-05-05T04:57:56.079Z,13.60
2023-05-05T04:58:37.968Z,13.80
2023-05-05T04:59:19.893Z,13.80
2023-05-05T05:00:01.884Z,13.80
2023-05-05T05:00:46.290Z,13.90
2023-05-05T05:01:28.132Z,13.80
2023-05-05T05:02:10.051Z,13.50
2023-05-05T05:02:52.568Z,13.80
2023-05-05T05:03:34.661Z,13.80
2023-05-05T05:04:18.588Z,13.80
2023-05-05T05:05:00.568Z,13.80
2023-05-05T05:05:44.765Z,13.90
2023-05-05T05:06:29.373Z,13.80
2023-05-05T05:07:11.336Z,13.90
2023-05-05T05:07:53.187Z,14.00
2023-05-05T05:08:35.053Z,13.90
2023-05-05T05:09:17.023Z,14.00
2023-05-05T05:09:59.467Z,13.80
2023-05-05T05:10:41.494Z,13.80
2023-05-05T05:11:23.918Z,13.90
2023-05-05T05:12:05.919Z,13.80
2023-05-05T05:12:48.986Z,13.80
2023-05-05T05:13:31.045Z,13.90
2023-05-05T05:14:12.912Z,13.80
2023-05-05T05:14:54.720Z,14.00
2023-05-05T05:15:39.475Z,14.00
2023-05-05T05:16:21.662Z,14.20
2023-05-05T05:17:03.930Z,13.70
2023-05-05T05:17:45.751Z,14.30
2023-05-05T05:18:27.837Z,13.90
2023-05-05T05:19:09.722Z,14.00
2023-05-05T05:19:51.588Z,14.00
2023-05-05T05:20:33.968Z,14.10
2023-05-05T05:21:16.377Z,14.10
2023-05-05T05:21:58.232Z,14.00
2023-05-05T05:22:41.022Z,14.20
2023-05-05T05:23:22.905Z,14.30
2023-05-05T05:24:05.137Z,14.10
2023-05-05T05:24:46.947Z,14.00
2023-05-05T05:25:29.406Z,14.30
2023-05-05T05:26:11.446Z,14.50
2023-05-05T05:26:55.658Z,14.20
2023-05-05T05:27:39.787Z,14.40
2023-05-05T05:28:21.640Z,14.40
2023-05-05T05:29:04.058Z,14.70
2023-05-05T05:29:46.099Z,14.40
2023-05-05T05:30:27.934Z,14.40
2023-05-05T05:31:09.749Z,14.50
2023-05-05T05:31:53.716Z,14.40
2023-05-05T05:32:35.565Z,14.30
2023-05-05T05:33:19.599Z,14.70
2023-05-05T05:34:03.679Z,14.90
2023-05-05T05:34:45.591Z,14.50
2023-05-05T05:35:29.532Z,14.30
2023-05-05T05:36:11.274Z,14.50
2023-05-05T05:36:56.048Z,14.60
2023-05-05T05:37:38.048Z,14.70
2023-05-05T05:38:19.895Z,14.50
2023-05-05T05:39:01.686Z,14.60
2023-05-05T05:39:43.909Z,14.70
2023-05-05T05:40:26.434Z,14.70
2023-05-05T05:41:10.896Z,14.60
2023-05-05T05:41:53.072Z,14.50
2023-05-05T05:42:34.895Z,14.70
2023-05-05T05:43:19.001Z,14.70
2023-05-05T05:44:00.774Z,15.10
2023-05-05T05:44:43.110Z,14.70
2023-05-05T05:45:25.242Z,14.90
2023-05-05T05:46:09.045Z,15.00
2023-05-05T05:46:51.193Z,15.00
2023-05-05T05:47:33.628Z,14.80
2023-05-05T05:48:17.776Z,14.90
2023-05-05T05:48:59.667Z,14.90
2023-05-05T05:49:41.458Z,15.00
2023-05-05T05:50:24.677Z,15.00
2023-05-05T05:51:08.831Z,16.00
2023-05-05T05:51:50.738Z,14.90
2023-05-05T05:52:33.663Z,14.90
2023-05-05T05:53:15.447Z,15.00
2023-05-05T05:53:58.897Z,15.10
2023-05-05T05:54:40.886Z,15.10
2023-05-05T05:55:23.288Z,14.90
2023-05-05T05:56:07.803Z,15.30
2023-05-05T05:56:49.692Z,15.00
2023-05-05T05:57:31.460Z,15.00
2023-05-05T05:58:15.616Z,15.00
2023-05-05T05:58:58.019Z,15.30
2023-05-05T05:59:39.833Z,15.40
2023-05-05T06:00:24.110Z,15.10
2023-05-05T06:01:06.029Z,15.20
2023-05-05T06:01:48.196Z,15.30
2023-05-05T06:02:30.091Z,15.30
2023-05-05T06:03:12.392Z,15.40
2023-05-05T06:03:54.396Z,15.30
2023-05-05T06:04:36.566Z,15.40
2023-05-05T06:05:18.838Z,15.30
2023-05-05T06:06:00.629Z,15.30
2023-05-05T06:06:42.535Z,15.50
2023-05-05T06:07:24.411Z,15.30
2023-05-05T06:08:06.325Z,15.60
2023-05-05T06:08:48.369Z,15.40
2023-05-05T06:09:30.303Z,15.60
2023-05-05T06:10:26.578Z,15.50
2023-05-05T06:11:09.984Z,15.50
2023-05-05T06:11:53.960Z,15.70
2023-05-05T06:12:35.827Z,15.60
2023-05-05T06:13:18.174Z,15.70
2023-05-05T06:14:00.032Z,15.70
2023-05-05T06:14:43.976Z,15.70
2023-05-05T06:15:26.021Z,15.80
2023-05-05T06:16:08.318Z,15.60
2023-05-05T06:16:52.749Z,15.70
2023-05-05T06:17:34.653Z,15.60
2023-05-05T06:18:16.674Z,15.70
2023-05-05T06:19:01.080Z,16.00
2023-05-05T06:19:43.409Z,15.60
2023-05-05T06:20:25.406Z,15.80
2023-05-05T06:21:07.297Z,15.90
2023-05-05T06:21:49.105Z,15.80
2023-05-05T06:22:30.885Z,15.90
2023-05-05T06:23:12.677Z,15.70
2023-05-05T06:23:54.480Z,16.10
2023-05-05T06:24:36.259Z,16.20
2023-05-05T06:25:18.089Z,16.10
2023-05-05T06:26:00.009Z,16.20
2023-05-05T06:26:44.186Z,16.30
2023-05-05T06:27:26.019Z,16.20
2023-05-05T06:28:07.935Z,16.30
2023-05-05T06:28:49.976Z,16.40
2023-05-05T06:29:34.555Z,16.70
2023-05-05T06:30:16.541Z,16.30
2023-05-05T06:30:58.705Z,16.50
2023-05-05T06:31:40.694Z,16.60
2023-05-05T06:32:22.526Z,16.60
2023-05-05T06:33:04.372Z,16.40
2023-05-05T06:33:46.323Z,16.60
2023-05-05T06:34:28.320Z,16.30
2023-05-05T06:35:10.559Z,16.80
2023-05-05T06:35:55.123Z,16.60
2023-05-05T06:36:39.407Z,16.50
2023-05-05T06:37:21.241Z,16.50
2023-05-05T06:38:03.264Z,16.60
2023-05-05T06:38:45.091Z,16.60
2023-05-05T06:39:29.782Z,16.50
2023-05-05T06:40:14.459Z,16.50
2023-05-05T06:40:58.512Z,16.60
2023-05-05T06:41:40.642Z,16.60
2023-05-05T06:42:22.577Z,16.50
2023-05-05T06:43:04.726Z,16.60
2023-05-05T06:43:49.081Z,16.60
2023-05-05T06:44:31.193Z,16.50
2023-05-05T06:45:13.480Z,16.60
2023-05-05T06:45:55.404Z,16.60
2023-05-05T06:46:39.608Z,16.70
2023-05-05T06:47:21.759Z,16.70
2023-05-05T06:48:06.129Z,16.80
2023-05-05T06:48:48.390Z,16.90
2023-05-05T06:49:30.226Z,16.80
2023-05-05T06:50:12.313Z,17.00
2023-05-05T06:50:54.457Z,17.00
2023-05-05T06:51:36.310Z,17.10
2023-05-05T06:52:18.461Z,17.00
2023-05-05T06:53:00.687Z,17.10
2023-05-05T06:53:42.535Z,17.30
2023-05-05T06:54:24.499Z,17.20
2023-05-05T06:55:09.027Z,17.30
2023-05-05T06:55:51.724Z,17.40
2023-05-05T06:56:33.921Z,17.40
2023-05-05T06:57:15.688Z,17.40
2023-05-05T06:57:57.671Z,17.30
2023-05-05T06:58:39.515Z,17.40
2023-05-05T06:59:21.479Z,17.50
2023-05-05T07:00:06.053Z,17.50
2023-05-05T07:00:48.427Z,17.30
2023-05-05T07:01:30.256Z,17.40
2023-05-05T07:02:14.183Z,17.30
2023-05-05T07:02:56.073Z,17.40
2023-05-05T07:03:37.938Z,17.20
2023-05-05T07:04:19.852Z,17.40
2023-05-05T07:05:04.580Z,17.30
2023-05-05T07:05:46.325Z,17.40
2023-05-05T07:06:28.578Z,17.60
2023-05-05T07:07:10.428Z,17.40
2023-05-05T07:07:53.969Z,17.50
2023-05-05T07:08:35.819Z,17.60
2023-05-05T07:09:18.686Z,17.50
2023-05-05T07:10:00.975Z,17.70
2023-05-05T07:10:42.913Z,17.70
2023-05-05T07:11:24.910Z,17.70
2023-05-05T07:12:07.043Z,17.60
2023-05-05T07:12:49.434Z,17.50
2023-05-05T07:13:31.289Z,17.60
2023-05-05T07:14:13.095Z,17.60
2023-05-05T07:14:54.887Z,17.70
2023-05-05T07:15:36.761Z,17.60
2023-05-05T07:16:18.557Z,17.70
2023-05-05T07:17:00.468Z,17.60
2023-05-05T07:17:44.975Z,17.60
2023-05-05T07:18:26.837Z,17.70
2023-05-05T07:19:08.974Z,17.60
2023-05-05T07:19:51.760Z,17.80
2023-05-05T07:20:34.104Z,17.70
2023-05-05T07:21:15.952Z,17.70
2023-05-05T07:21:57.766Z,17.70
2023-05-05T07:22:39.730Z,17.80
2023-05-05T07:23:21.813Z,17.70
2023-05-05T07:24:04.118Z,17.70
2023-05-05T07:24:45.994Z,17.80
2023-05-05T07:25:27.837Z,17.70
2023-05-05T07:26:09.722Z,17.80
2023-05-05T07:26:51.576Z,17.70
2023-05-05T07:27:33.715Z,17.90
2023-05-05T07:28:15.545Z,18.00
2023-05-05T07:28:58.960Z,18.00
2023-05-05T07:29:40.986Z,18.10
2023-05-05T07:30:24.793Z,18.00
2023-05-05T07:31:06.965Z,18.00
2023-05-05T07:31:49.109Z,18.00
2023-05-05T07:32:31.429Z,18.10
2023-05-05T07:33:14.535Z,18.10
2023-05-05T07:33:56.341Z,18.20
2023-05-05T07:34:40.283Z,18.20
2023-05-05T07:35:23.524Z,18.30
2023-05-05T07:36:05.681Z,18.10
2023-05-05T07:36:47.509Z,18.20
2023-05-05T07:37:29.324Z,18.10
2023-05-05T07:38:11.346Z,18.20
2023-05-05T07:38:53.674Z,18.00
2023-05-05T07:39:35.666Z,18.20
2023-05-05T07:40:19.522Z,18.20
2023-05-05T07:41:01.442Z,18.10
2023-05-05T07:41:46.346Z,18.20
2023-05-05T07:42:30.579Z,18.20
2023-05-05T07:43:14.827Z,18.20
2023-05-05T07:43:56.683Z,18.10
2023-05-05T07:44:38.505Z,18.30
2023-05-05T07:45:20.872Z,18.20
2023-05-05T07:46:02.827Z,18.40
2023-05-05T07:46:44.708Z,18.30
2023-05-05T07:47:26.796Z,18.30
2023-05-05T07:48:09.159Z,18.50
2023-05-05T07:48:51.236Z,18.40
2023-05-05T07:49:33.058Z,18.50
2023-05-05T07:50:15.330Z,18.40
2023-05-05T07:50:59.684Z,18.50
2023-05-05T07:51:42.167Z,18.30
2023-05-05T07:52:37.077Z,18.50
2023-05-05T07:53:25.826Z,18.40
2023-05-05T07:54:07.669Z,18.60
2023-05-05T07:54:49.709Z,18.70
2023-05-05T07:55:31.515Z,18.50
2023-05-05T07:56:13.823Z,18.50
2023-05-05T07:56:59.298Z,18.60
2023-05-05T07:57:41.140Z,18.70
2023-05-05T07:58:23.006Z,18.60
2023-05-05T07:59:04.899Z,18.80
2023-05-05T07:59:46.699Z,18.80
2023-05-05T08:00:28.680Z,18.60
2023-05-05T08:01:12.708Z,18.70
2023-05-05T08:01:55.090Z,19.00
2023-05-05T08:02:37.029Z,18.90
2023-05-05T08:03:24.882Z,18.90
2023-05-05T08:04:07.099Z,19.00
2023-05-05T08:04:51.377Z,19.00
2023-05-05T08:05:33.671Z,19.10
2023-05-05T08:06:33.571Z,18.90
2023-05-05T08:07:15.618Z,19.10
2023-05-05T08:07:59.516Z,19.20
2023-05-05T08:08:41.473Z,19.20
2023-05-05T08:09:25.848Z,19.20
2023-05-05T08:10:10.393Z,19.20
2023-05-05T08:10:53.193Z,19.30
2023-05-05T08:11:35.198Z,19.30
2023-05-05T08:12:19.060Z,19.30
2023-05-05T08:13:01.166Z,19.30
2023-05-05T08:13:43.273Z,19.10
2023-05-05T08:14:25.048Z,19.00
2023-05-05T08:15:09.876Z,19.20
2023-05-05T08:15:53.291Z,19.30
2023-05-05T08:16:35.397Z,19.30
2023-05-05T08:17:19.929Z,19.20
2023-05-05T08:18:01.815Z,18.90
2023-05-05T08:18:43.956Z,19.10
2023-05-05T08:19:29.202Z,19.20
2023-05-05T08:20:11.839Z,19.30
2023-05-05T08:20:54.730Z,19.00
2023-05-05T08:21:36.599Z,19.10
2023-05-05T08:22:18.868Z,19.40
2023-05-05T08:23:00.653Z,19.50
2023-05-05T08:23:42.542Z,19.50
2023-05-05T08:24:26.522Z,19.60
2023-05-05T08:25:10.954Z,19.40
2023-05-05T08:25:52.895Z,19.60
2023-05-05T08:26:34.717Z,19.70
2023-05-05T08:27:16.559Z,19.60
2023-05-05T08:27:58.433Z,19.50
2023-05-05T08:28:40.319Z,19.40
2023-05-05T08:29:22.125Z,19.20
2023-05-05T08:30:04.797Z,19.30
2023-05-05T08:30:47.097Z,19.60
2023-05-05T08:31:32.804Z,19.40
2023-05-05T08:32:16.258Z,19.60
2023-05-05T08:32:59.064Z,19.40
2023-05-05T08:33:41.105Z,19.50
2023-05-05T08:34:23.463Z,19.60
2023-05-05T08:35:09.451Z,19.60
2023-05-05T08:35:54.005Z,19.40
2023-05-05T08:36:35.934Z,19.40
2023-05-05T08:37:18.931Z,19.40
2023-05-05T08:38:00.727Z,19.50
2023-05-05T08:38:43.450Z,19.10
2023-05-05T08:39:27.536Z,19.20
2023-05-05T08:40:14.024Z,19.10
2023-05-05T08:40:56.195Z,19.20
2023-05-05T08:41:38.393Z,19.30
2023-05-05T08:42:35.509Z,19.20
2023-05-05T08:43:24.002Z,19.20
2023-05-05T08:44:05.926Z,19.40
2023-05-05T08:44:47.985Z,19.50
2023-05-05T08:45:30.619Z,19.60
2023-05-05T08:46:12.942Z,19.50
2023-05-05T08:46:55.796Z,19.70
2023-05-05T08:47:39.046Z,19.70
2023-05-05T08:48:23.304Z,20.00
2023-05-05T08:49:06.152Z,20.00
2023-05-05T08:49:48.036Z,20.00
2023-05-05T08:50:30.964Z,19.80
2023-05-05T08:51:20.144Z,19.90
2023-05-05T08:52:06.012Z,20.10
2023-05-05T08:52:54.349Z,19.80
2023-05-05T08:54:03.987Z,20.10
2023-05-05T08:54:54.395Z,20.30
2023-05-05T08:55:45.467Z,20.20
2023-05-05T08:56:32.497Z,20.20
2023-05-05T08:57:18.092Z,20.70
2023-05-05T08:58:06.423Z,20.40
2023-05-05T08:58:49.588Z,20.00
2023-05-05T08:59:33.518Z,19.80
2023-05-05T09:00:16.188Z,20.20
2023-05-05T09:00:58.699Z,20.30
2023-05-05T09:01:42.019Z,20.10
2023-05-05T09:02:28.505Z,20.60
2023-05-05T09:03:14.365Z,20.40
2023-05-05T09:03:59.085Z,20.50
2023-05-05T09:04:43.899Z,18.90
2023-05-05T09:05:28.930Z,20.10
2023-05-05T09:06:11.039Z,19.80
2023-05-05T09:06:53.040Z,20.00
2023-05-05T09:07:35.497Z,20.20
2023-05-05T09:08:18.650Z,20.10
2023-05-05T09:09:01.396Z,20.00
2023-05-05T09:09:44.244Z,20.20
2023-05-05T09:10:28.830Z,19.90
2023-05-05T09:11:11.431Z,19.90
2023-05-05T09:11:55.723Z,19.90
2023-05-05T09:12:41.249Z,19.80
2023-05-05T09:13:23.809Z,19.50
2023-05-05T09:14:05.665Z,19.40
2023-05-05T09:14:47.485Z,19.40
2023-05-05T09:15:29.477Z,19.30
2023-05-05T09:16:11.498Z,19.30
2023-05-05T09:16:53.802Z,19.30
2023-05-05T09:17:36.379Z,19.10
2023-05-05T09:18:18.280Z,19.10
2023-05-05T09:19:04.348Z,19.00
2023-05-05T09:20:04.896Z,19.60
2023-05-05T09:20:48.884Z,19.30
2023-05-05T09:21:31.027Z,19.70
2023-05-05T09:22:13.121Z,19.70
2023-05-05T09:22:54.879Z,19.80
2023-05-05T09:23:37.034Z,20.30
2023-05-05T09:24:18.907Z,20.00
2023-05-05T09:25:00.990Z,19.80
2023-05-05T09:26:04.465Z,20.10
2023-05-05T09:26:48.373Z,19.70
2023-05-05T09:27:30.442Z,19.40
2023-05-05T09:28:13.641Z,19.30
2023-05-05T09:28:55.746Z,19.30
2023-05-05T09:29:38.163Z,19.40
2023-05-05T09:30:27.065Z,19.50